QFA123 YSSY-NZQN
Flight info
| Callsign | QFA123 |
|---|---|
| Flight time | N/A |
| Altitude | 37000 |
| Route | OPTIC Y84 TONIM P766 ADKOS |
| Aircraft | B38M/M-SDE1FGHILORVWXY/HB1 |
Departure
| Time | 2026-04-20 04:43 |
|---|---|
| Airport | Sydney Kingsford Smith International Airport (YSSY) |
Arrival
| Time | N/A |
|---|---|
| Airport | Queenstown Airport (NZQN) |
| Time | Latitude | Longitude | Altitude | Speed | Heading |
|---|---|---|---|---|---|
| 2026-04-20 03:59 | -33.94000 | 151.16394 | 26 ft | 0 kts | 85° |
| 2026-04-20 04:15 | -33.94001 | 151.16373 | 25 ft | 3 kts | 85° |
| 2026-04-20 04:16 | -33.94002 | 151.16351 | 26 ft | 3 kts | 85° |
| 2026-04-20 04:16 | -33.94004 | 151.16329 | 26 ft | 3 kts | 85° |
| 2026-04-20 04:16 | -33.94005 | 151.16307 | 27 ft | 3 kts | 114° |
| 2026-04-20 04:16 | -33.93993 | 151.16292 | 26 ft | 2 kts | 178° |
| 2026-04-20 04:17 | -33.93991 | 151.16292 | 26 ft | 0 kts | 176° |
| 2026-04-20 04:28 | -33.93992 | 151.16292 | 22 ft | 0 kts | 181° |
| 2026-04-20 04:28 | -33.94014 | 151.16285 | 22 ft | 5 kts | 194° |
| 2026-04-20 04:28 | -33.94032 | 151.16281 | 25 ft | 0 kts | 186° |
| 2026-04-20 04:29 | -33.94033 | 151.16281 | 25 ft | 0 kts | 187° |
| 2026-04-20 04:29 | -33.94044 | 151.16279 | 23 ft | 3 kts | 187° |
| 2026-04-20 04:29 | -33.94074 | 151.16274 | 22 ft | 5 kts | 188° |
| 2026-04-20 04:29 | -33.94113 | 151.16280 | 24 ft | 7 kts | 168° |
| 2026-04-20 04:30 | -33.94159 | 151.16305 | 22 ft | 8 kts | 135° |
| 2026-04-20 04:30 | -33.94173 | 151.16371 | 24 ft | 10 kts | 77° |
| 2026-04-20 04:30 | -33.94152 | 151.16455 | 24 ft | 10 kts | 76° |
| 2026-04-20 04:30 | -33.94131 | 151.16545 | 22 ft | 12 kts | 74° |
| 2026-04-20 04:31 | -33.94105 | 151.16658 | 23 ft | 16 kts | 74° |
| 2026-04-20 04:31 | -33.94073 | 151.16793 | 22 ft | 17 kts | 75° |
| 2026-04-20 04:31 | -33.94050 | 151.16893 | 24 ft | 0 kts | 72° |
| 2026-04-20 04:33 | -33.94050 | 151.16894 | 24 ft | 1 kts | 73° |
| 2026-04-20 04:33 | -33.94041 | 151.16928 | 23 ft | 8 kts | 73° |
| 2026-04-20 04:34 | -33.94019 | 151.17018 | 22 ft | 15 kts | 74° |
| 2026-04-20 04:34 | -33.93984 | 151.17162 | 21 ft | 21 kts | 72° |
| 2026-04-20 04:34 | -33.93945 | 151.17344 | 19 ft | 22 kts | 75° |
| 2026-04-20 04:34 | -33.93907 | 151.17498 | 21 ft | 17 kts | 75° |
| 2026-04-20 04:35 | -33.93884 | 151.17601 | 20 ft | 10 kts | 74° |
| 2026-04-20 04:35 | -33.93876 | 151.17638 | 20 ft | 0 kts | 75° |
| 2026-04-20 04:36 | -33.93872 | 151.17655 | 20 ft | 1 kts | 73° |
| 2026-04-20 04:37 | -33.93869 | 151.17666 | 20 ft | 3 kts | 73° |
| 2026-04-20 04:37 | -33.93860 | 151.17705 | 20 ft | 7 kts | 76° |
| 2026-04-20 04:37 | -33.93869 | 151.17757 | 23 ft | 7 kts | 129° |
| 2026-04-20 04:37 | -33.93916 | 151.17783 | 24 ft | 8 kts | 166° |
| 2026-04-20 04:38 | -33.93974 | 151.17799 | 26 ft | 9 kts | 167° |
| 2026-04-20 04:38 | -33.94041 | 151.17816 | 27 ft | 11 kts | 166° |
| 2026-04-20 04:38 | -33.94122 | 151.17837 | 26 ft | 13 kts | 167° |
| 2026-04-20 04:38 | -33.94208 | 151.17859 | 27 ft | 13 kts | 164° |
| 2026-04-20 04:39 | -33.94302 | 151.17884 | 26 ft | 15 kts | 168° |
| 2026-04-20 04:39 | -33.94412 | 151.17912 | 29 ft | 17 kts | 172° |
| 2026-04-20 04:39 | -33.94526 | 151.17886 | 28 ft | 17 kts | 176° |
| 2026-04-20 04:39 | -33.94636 | 151.17912 | 27 ft | 15 kts | 170° |
| 2026-04-20 04:40 | -33.94745 | 151.17941 | 25 ft | 17 kts | 168° |
| 2026-04-20 04:40 | -33.94829 | 151.17960 | 25 ft | 20 kts | 171° |
| 2026-04-20 04:40 | -33.94954 | 151.17990 | 26 ft | 17 kts | 160° |
| 2026-04-20 04:40 | -33.95059 | 151.18022 | 27 ft | 15 kts | 167° |
| 2026-04-20 04:41 | -33.95090 | 151.18173 | 28 ft | 19 kts | 78° |
| 2026-04-20 04:41 | -33.95071 | 151.18283 | 26 ft | 21 kts | 78° |
| 2026-04-20 04:41 | -33.95026 | 151.18531 | 28 ft | 25 kts | 77° |
| 2026-04-20 04:41 | -33.94991 | 151.18733 | 25 ft | 15 kts | 79° |
| 2026-04-20 04:42 | -33.94992 | 151.18809 | 27 ft | 14 kts | 105° |
| 2026-04-20 04:42 | -33.95063 | 151.18860 | 24 ft | 5 kts | 168° |
| 2026-04-20 04:42 | -33.95115 | 151.18873 | 25 ft | 34 kts | 169° |
| 2026-04-20 04:42 | -33.95616 | 151.19003 | 26 ft | 110 kts | 167° |
| 2026-04-20 04:43 | -33.96568 | 151.19239 | 26 ft | 168 kts | 168° |
| 2026-04-20 04:43 | -33.97808 | 151.19566 | 80 ft | 193 kts | 170° |
| 2026-04-20 04:43 | -33.99181 | 151.19895 | 147 ft | 208 kts | 171° |
| 2026-04-20 04:43 | -34.01117 | 151.20347 | 848 ft | 210 kts | 160° |
| 2026-04-20 04:44 | -34.01883 | 151.21011 | 1714 ft | 199 kts | 131° |
| 2026-04-20 04:44 | -34.02315 | 151.22614 | 2518 ft | 208 kts | 100° |
| 2026-04-20 04:44 | -34.02388 | 151.24326 | 3244 ft | 207 kts | 95° |
| 2026-04-20 04:44 | -34.02690 | 151.25959 | 3834 ft | 200 kts | 128° |
| 2026-04-20 04:45 | -34.03650 | 151.27197 | 4286 ft | 207 kts | 140° |
| 2026-04-20 04:45 | -34.04739 | 151.28404 | 4671 ft | 218 kts | 142° |
| 2026-04-20 04:45 | -34.05939 | 151.29599 | 5000 ft | 230 kts | 144° |
| 2026-04-20 04:45 | -34.07219 | 151.30829 | 5312 ft | 240 kts | 144° |
| 2026-04-20 04:46 | -34.08559 | 151.32132 | 6069 ft | 253 kts | 144° |
| 2026-04-20 04:46 | -34.09942 | 151.33492 | 7110 ft | 259 kts | 144° |
| 2026-04-20 04:46 | -34.11345 | 151.34870 | 8084 ft | 263 kts | 144° |
| 2026-04-20 04:46 | -34.12777 | 151.36274 | 8967 ft | 267 kts | 144° |
| 2026-04-20 04:47 | -34.14066 | 151.37918 | 9851 ft | 276 kts | 128° |
| 2026-04-20 04:47 | -34.15092 | 151.39882 | 10568 ft | 286 kts | 126° |
| 2026-04-20 04:47 | -34.16153 | 151.41979 | 11114 ft | 301 kts | 126° |
| 2026-04-20 04:47 | -34.17281 | 151.44188 | 11602 ft | 317 kts | 126° |
| 2026-04-20 04:48 | -34.18474 | 151.46501 | 12170 ft | 330 kts | 126° |
| 2026-04-20 04:48 | -34.19697 | 151.48879 | 12885 ft | 337 kts | 125° |
| 2026-04-20 04:48 | -34.20940 | 151.51307 | 13670 ft | 343 kts | 126° |
| 2026-04-20 04:48 | -34.22206 | 151.53777 | 14435 ft | 348 kts | 126° |
| 2026-04-20 04:49 | -34.23487 | 151.56276 | 15142 ft | 352 kts | 126° |
| 2026-04-20 04:49 | -34.24787 | 151.58813 | 15862 ft | 357 kts | 126° |
| 2026-04-20 04:49 | -34.26082 | 151.61343 | 16555 ft | 361 kts | 126° |
| 2026-04-20 04:49 | -34.27408 | 151.63938 | 17267 ft | 365 kts | 126° |
| 2026-04-20 04:50 | -34.28752 | 151.66568 | 17972 ft | 369 kts | 126° |
| 2026-04-20 04:50 | -34.30107 | 151.69221 | 18640 ft | 373 kts | 126° |
| 2026-04-20 04:50 | -34.31479 | 151.71910 | 19247 ft | 377 kts | 126° |
| 2026-04-20 04:50 | -34.32859 | 151.74617 | 19844 ft | 380 kts | 126° |
| 2026-04-20 04:51 | -34.34254 | 151.77355 | 20449 ft | 383 kts | 126° |
| 2026-04-20 04:51 | -34.35657 | 151.80110 | 21044 ft | 386 kts | 126° |
| 2026-04-20 04:51 | -34.37073 | 151.82894 | 21634 ft | 389 kts | 126° |
| 2026-04-20 04:51 | -34.38478 | 151.85658 | 22207 ft | 392 kts | 126° |
| 2026-04-20 04:52 | -34.39943 | 151.88514 | 22796 ft | 394 kts | 128° |
| 2026-04-20 04:52 | -34.41611 | 151.91073 | 23351 ft | 393 kts | 134° |
| 2026-04-20 04:52 | -34.43372 | 151.93622 | 23915 ft | 396 kts | 134° |
| 2026-04-20 04:52 | -34.45141 | 151.96197 | 24370 ft | 399 kts | 134° |
| 2026-04-20 04:53 | -34.46920 | 151.98801 | 24855 ft | 402 kts | 134° |
| 2026-04-20 04:53 | -34.48711 | 152.01420 | 25300 ft | 404 kts | 134° |
| 2026-04-20 04:53 | -34.50511 | 152.04045 | 25762 ft | 406 kts | 134° |
| 2026-04-20 04:53 | -34.52319 | 152.06687 | 26223 ft | 409 kts | 134° |
| 2026-04-20 04:54 | -34.54138 | 152.09350 | 26663 ft | 411 kts | 134° |
| 2026-04-20 04:54 | -34.55940 | 152.11990 | 27098 ft | 413 kts | 134° |
| 2026-04-20 04:54 | -34.57773 | 152.14676 | 27538 ft | 415 kts | 134° |
| 2026-04-20 04:54 | -34.59615 | 152.17377 | 27969 ft | 417 kts | 135° |
| 2026-04-20 04:55 | -34.61469 | 152.20097 | 28400 ft | 419 kts | 135° |
| 2026-04-20 04:55 | -34.63325 | 152.22824 | 28838 ft | 420 kts | 135° |
| 2026-04-20 04:55 | -34.65193 | 152.25571 | 29246 ft | 422 kts | 135° |
| 2026-04-20 04:55 | -34.67066 | 152.28326 | 29660 ft | 424 kts | 135° |
| 2026-04-20 04:56 | -34.68946 | 152.31093 | 30058 ft | 426 kts | 135° |
| 2026-04-20 04:56 | -34.70837 | 152.33880 | 30428 ft | 428 kts | 135° |
| 2026-04-20 04:56 | -34.72707 | 152.36637 | 30755 ft | 430 kts | 135° |
| 2026-04-20 04:56 | -34.74618 | 152.39458 | 31085 ft | 431 kts | 135° |
| 2026-04-20 04:57 | -34.76522 | 152.42270 | 31403 ft | 433 kts | 135° |
| 2026-04-20 04:57 | -34.78438 | 152.45102 | 31723 ft | 435 kts | 135° |
| 2026-04-20 04:57 | -34.80353 | 152.47937 | 32197 ft | 432 kts | 135° |
| 2026-04-20 04:57 | -34.82259 | 152.50763 | 32695 ft | 430 kts | 135° |
| 2026-04-20 04:58 | -34.84151 | 152.53564 | 33204 ft | 428 kts | 135° |
| 2026-04-20 04:58 | -34.86033 | 152.56354 | 33672 ft | 426 kts | 135° |
| 2026-04-20 04:58 | -34.87885 | 152.59103 | 34136 ft | 424 kts | 136° |
| 2026-04-20 04:58 | -34.89750 | 152.61874 | 34540 ft | 422 kts | 136° |
| 2026-04-20 04:59 | -34.91607 | 152.64634 | 34912 ft | 421 kts | 136° |
| 2026-04-20 04:59 | -34.93241 | 152.67064 | 35238 ft | 420 kts | 136° |
| 2026-04-20 04:59 | -34.95087 | 152.69811 | 35606 ft | 419 kts | 136° |